Terminal Aerodrome Forecast
Issued by NWS Sioux Falls, SD

Home | Current Version | Previous Version | Graphics & Text | Print | Product List | Glossary Off
Versions: 1 2 3 4 5 6 7 8 9 10 11 12 13 14 15

000
FTUS43 KFSD 231120
TAFSUX
TAF
KSUX 231120Z 2312/2412 30007KT P6SM SCT050 BKN070
     FM231500 32011G17KT P6SM BKN025
     FM231900 33015G23KT P6SM VCSH OVC035
     FM232200 34016G24KT P6SM -SHRA OVC045
     FM240300 34010KT P6SM BKN045
     FM240800 33009KT P6SM BKN025=

USA.gov is the U.S. government's official web portal to all federal, state and local government web resources and services.